createdAt,value
2022-12-26T00:00:04.182Z,1.68
2022-12-26T00:02:34.384Z,1.65
2022-12-26T00:05:02.079Z,1.56
2022-12-26T00:07:31.372Z,1.53
2022-12-26T00:09:59.433Z,1.57
2022-12-26T00:12:27.233Z,1.76
2022-12-26T00:14:54.493Z,1.38
2022-12-26T00:17:21.651Z,1.57
2022-12-26T00:19:52.548Z,1.57
2022-12-26T00:22:19.726Z,1.53
2022-12-26T00:24:47.902Z,1.39
2022-12-26T00:27:14.996Z,1.42
2022-12-26T00:29:42.147Z,1.48
2022-12-26T00:32:09.121Z,1.40
2022-12-26T00:34:38.565Z,1.43
2022-12-26T00:37:08.371Z,1.13
2022-12-26T00:39:35.591Z,1.43
2022-12-26T00:42:02.885Z,1.42
2022-12-26T00:44:29.937Z,1.30
2022-12-26T00:46:57.985Z,1.24
2022-12-26T00:50:13.127Z,1.22
2022-12-26T00:52:45.167Z,1.21
2022-12-26T00:55:12.336Z,1.17
2022-12-26T00:58:02.745Z,1.17
2022-12-26T01:00:29.817Z,1.07
2022-12-26T01:02:57.518Z,1.14
2022-12-26T01:05:25.044Z,1.18
2022-12-26T01:08:23.686Z,1.12
2022-12-26T01:10:43.757Z,1.11
2022-12-26T01:13:11.276Z,1.11
2022-12-26T01:15:39.339Z,1.11
2022-12-26T01:18:09.903Z,1.12
2022-12-26T01:20:42.129Z,1.06
2022-12-26T01:23:09.318Z,1.12
2022-12-26T01:25:36.346Z,1.29
2022-12-26T01:28:30.743Z,1.33
2022-12-26T01:31:09.187Z,1.19
2022-12-26T01:33:37.144Z,1.22
2022-12-26T01:36:08.400Z,1.19
2022-12-26T01:38:36.189Z,1.21
2022-12-26T01:41:24.315Z,1.33
2022-12-26T01:44:46.076Z,1.14
2022-12-26T01:47:13.732Z,1.13
2022-12-26T01:49:44.256Z,1.15
2022-12-26T01:53:00.950Z,1.07
2022-12-26T01:59:06.149Z,0.84
2022-12-26T02:01:38.436Z,0.95
2022-12-26T02:04:28.354Z,0.92
2022-12-26T02:06:58.681Z,0.83
2022-12-26T02:09:26.307Z,0.83
2022-12-26T02:12:34.406Z,0.71
2022-12-26T02:15:06.103Z,0.53
2022-12-26T02:17:33.796Z,0.54
2022-12-26T02:20:02.124Z,0.69
2022-12-26T02:22:49.737Z,0.57
2022-12-26T02:25:38.205Z,0.57
2022-12-26T02:28:37.701Z,0.46
2022-12-26T02:31:26.425Z,0.56
2022-12-26T02:34:18.151Z,0.41
2022-12-26T02:36:58.045Z,0.60
2022-12-26T02:39:46.609Z,0.54
2022-12-26T02:42:51.087Z,0.50
2022-12-26T02:46:28.626Z,0.19
2022-12-26T02:49:22.135Z,0.33
2022-12-26T02:52:22.525Z,0.31
2022-12-26T02:55:20.902Z,0.29
2022-12-26T02:58:30.109Z,0.19
2022-12-26T03:01:22.983Z,0.34
2022-12-26T03:04:11.861Z,0.33
2022-12-26T03:07:15.742Z,0.42
2022-12-26T03:10:05.266Z,0.30
2022-12-26T03:13:10.847Z,0.27
2022-12-26T03:16:04.693Z,0.27
2022-12-26T03:18:58.036Z,0.08
2022-12-26T03:21:25.218Z,0.26
2022-12-26T03:23:57.114Z,0.09
2022-12-26T03:26:47.775Z,0.28
2022-12-26T03:29:43.057Z,0.27
2022-12-26T03:32:12.239Z,0.40
2022-12-26T03:34:44.861Z,0.34
2022-12-26T03:37:48.982Z,0.47
2022-12-26T03:40:42.853Z,0.43
2022-12-26T03:44:00.027Z,0.36
2022-12-26T03:46:51.784Z,0.36
2022-12-26T03:49:41.128Z,0.46
2022-12-26T03:52:33.358Z,0.40
2022-12-26T03:55:27.415Z,0.47
2022-12-26T03:58:29.538Z,0.49
2022-12-26T04:01:20.410Z,0.53
2022-12-26T04:04:08.060Z,0.58
2022-12-26T04:07:08.155Z,0.46
2022-12-26T04:10:08.454Z,0.58
2022-12-26T04:12:56.578Z,0.54
2022-12-26T04:15:56.705Z,0.64
2022-12-26T04:18:53.530Z,0.63
2022-12-26T04:21:44.786Z,0.61
2022-12-26T04:24:37.285Z,0.63
2022-12-26T04:27:27.016Z,0.51
2022-12-26T04:30:13.115Z,0.51
2022-12-26T04:33:06.957Z,0.36
2022-12-26T04:35:55.813Z,0.36
2022-12-26T04:38:49.547Z,0.33
2022-12-26T04:41:38.182Z,0.34
2022-12-26T04:44:08.582Z,0.36
2022-12-26T04:46:40.288Z,0.46
2022-12-26T04:49:29.744Z,0.46
2022-12-26T04:51:58.303Z,0.12
2022-12-26T04:54:26.680Z,0.34
2022-12-26T04:56:54.373Z,0.36
2022-12-26T04:59:21.916Z,0.29
2022-12-26T05:02:08.173Z,0.35
2022-12-26T05:04:57.278Z,0.37
2022-12-26T05:07:53.928Z,0.37
2022-12-26T05:10:24.095Z,0.31
2022-12-26T05:12:53.249Z,0.37
2022-12-26T05:15:21.392Z,0.38
2022-12-26T05:18:07.531Z,0.41
2022-12-26T05:20:53.123Z,0.38
2022-12-26T05:23:45.905Z,0.45
2022-12-26T05:26:41.968Z,0.45
2022-12-26T05:29:12.183Z,0.41
2022-12-26T05:31:40.052Z,0.37
2022-12-26T05:34:12.925Z,0.40
2022-12-26T05:36:50.605Z,0.35
2022-12-26T05:39:20.691Z,0.34
2022-12-26T05:41:48.118Z,0.31
2022-12-26T05:44:15.957Z,0.35
2022-12-26T05:46:43.244Z,0.39
2022-12-26T05:49:10.919Z,0.36
2022-12-26T05:51:38.307Z,0.38
2022-12-26T05:54:05.545Z,0.40
2022-12-26T05:56:33.736Z,0.41
2022-12-26T05:59:01.673Z,0.36
2022-12-26T06:01:30.216Z,0.30
2022-12-26T06:04:00.166Z,0.32
2022-12-26T06:06:28.921Z,0.36
2022-12-26T06:08:57.454Z,0.44
2022-12-26T06:11:26.776Z,0.42
2022-12-26T06:13:54.358Z,0.43
2022-12-26T06:16:21.810Z,0.61
2022-12-26T06:18:50.080Z,0.58
2022-12-26T06:21:20.001Z,0.40
2022-12-26T06:23:50.967Z,0.62
2022-12-26T06:26:18.402Z,0.72
2022-12-26T06:28:47.958Z,0.64
2022-12-26T06:31:21.580Z,0.64
2022-12-26T06:33:51.773Z,0.52
2022-12-26T06:36:21.948Z,0.72
2022-12-26T06:38:49.821Z,0.68
2022-12-26T06:41:19.344Z,0.75
2022-12-26T06:43:47.857Z,0.91
2022-12-26T06:46:22.232Z,0.89
2022-12-26T06:48:50.470Z,0.88
2022-12-26T06:51:21.666Z,0.99
2022-12-26T06:53:50.448Z,0.54
2022-12-26T06:56:23.630Z,1.02
2022-12-26T06:58:58.920Z,1.10
2022-12-26T07:01:28.932Z,1.14
2022-12-26T07:03:56.883Z,1.03
2022-12-26T07:06:28.073Z,1.23
2022-12-26T07:08:57.827Z,1.26
2022-12-26T07:11:38.228Z,1.00
2022-12-26T07:14:06.106Z,1.31
2022-12-26T07:16:41.000Z,1.40
2022-12-26T07:19:10.531Z,1.35
2022-12-26T07:21:40.951Z,1.48
2022-12-26T07:24:21.812Z,1.47
2022-12-26T07:26:50.019Z,1.40
2022-12-26T07:29:17.389Z,1.60
2022-12-26T07:31:45.262Z,1.69
2022-12-26T07:34:12.508Z,1.77
2022-12-26T07:36:42.656Z,1.75
2022-12-26T07:39:12.575Z,2.07
2022-12-26T07:41:57.891Z,2.15
2022-12-26T07:44:26.945Z,2.19
2022-12-26T07:46:55.119Z,2.20
2022-12-26T07:49:22.450Z,2.28
2022-12-26T07:51:51.325Z,2.22
2022-12-26T07:54:21.590Z,2.24
2022-12-26T07:56:49.523Z,2.40
2022-12-26T07:59:17.874Z,2.43
2022-12-26T08:01:45.598Z,2.35
2022-12-26T08:04:14.039Z,2.48
2022-12-26T08:06:41.310Z,2.57
2022-12-26T08:09:13.411Z,2.66
2022-12-26T08:11:41.082Z,2.78
2022-12-26T08:14:11.556Z,2.93
2022-12-26T08:16:45.452Z,3.10
2022-12-26T08:19:16.611Z,2.95
2022-12-26T08:21:43.908Z,2.87
2022-12-26T08:24:10.840Z,3.02
2022-12-26T08:26:38.487Z,3.10
2022-12-26T08:29:05.988Z,3.09
2022-12-26T08:31:33.264Z,2.99
2022-12-26T08:34:00.493Z,3.04
2022-12-26T08:36:29.436Z,3.10
2022-12-26T08:38:57.888Z,3.18
2022-12-26T08:41:25.662Z,3.30
2022-12-26T08:44:25.753Z,3.38
2022-12-26T08:46:41.205Z,3.43
2022-12-26T08:49:08.782Z,3.50
2022-12-26T08:51:42.196Z,3.61
2022-12-26T08:54:09.876Z,3.58
2022-12-26T08:56:37.741Z,3.56
2022-12-26T08:59:05.468Z,3.68
2022-12-26T09:01:32.897Z,3.68
2022-12-26T09:04:03.762Z,3.80
2022-12-26T09:06:33.161Z,3.71
2022-12-26T09:09:01.042Z,3.74
2022-12-26T09:11:29.187Z,3.73
2022-12-26T09:13:58.517Z,3.78
2022-12-26T09:16:37.401Z,3.82
2022-12-26T09:19:06.806Z,3.80
2022-12-26T09:21:37.688Z,3.84
2022-12-26T09:24:07.765Z,3.83
2022-12-26T09:26:38.187Z,3.90
2022-12-26T09:29:06.291Z,3.95
2022-12-26T09:31:36.731Z,4.02
2022-12-26T09:34:11.141Z,4.07
2022-12-26T09:36:39.185Z,4.20
2022-12-26T09:39:07.585Z,4.19
2022-12-26T09:41:51.159Z,4.36
2022-12-26T09:45:00.128Z,4.50
2022-12-26T09:48:20.055Z,4.62
2022-12-26T09:50:51.660Z,4.79
2022-12-26T09:53:29.363Z,4.92
2022-12-26T09:56:04.520Z,4.98
2022-12-26T09:58:46.707Z,5.17
2022-12-26T10:01:23.843Z,5.34
2022-12-26T10:03:57.637Z,5.43
2022-12-26T10:06:25.935Z,5.60
2022-12-26T10:09:54.753Z,5.89
2022-12-26T10:12:44.513Z,6.01
2022-12-26T10:15:30.157Z,6.08
2022-12-26T10:18:16.101Z,6.11
2022-12-26T10:21:03.752Z,6.20
2022-12-26T10:23:43.539Z,6.38
2022-12-26T10:26:20.912Z,6.49
2022-12-26T10:28:52.304Z,6.66
2022-12-26T10:31:30.395Z,6.73
2022-12-26T10:34:30.414Z,6.80
2022-12-26T10:37:03.963Z,6.89
2022-12-26T10:39:40.359Z,6.96
2022-12-26T10:42:24.908Z,7.03
2022-12-26T10:44:55.378Z,7.06
2022-12-26T10:47:28.053Z,7.13
2022-12-26T10:50:01.384Z,7.15
2022-12-26T10:52:40.649Z,7.28
2022-12-26T10:55:28.628Z,7.39
2022-12-26T10:58:12.219Z,7.30
2022-12-26T11:00:42.956Z,7.53
2022-12-26T11:03:16.694Z,7.66
2022-12-26T11:06:07.157Z,7.70
2022-12-26T11:08:46.831Z,7.80
2022-12-26T11:11:22.956Z,7.86
2022-12-26T11:14:02.093Z,7.99
2022-12-26T11:16:34.530Z,8.14
2022-12-26T11:19:02.297Z,8.36
2022-12-26T11:21:33.729Z,8.38
2022-12-26T11:24:09.722Z,8.57
2022-12-26T11:26:41.543Z,8.62
2022-12-26T11:29:24.760Z,8.68
2022-12-26T11:32:01.505Z,8.71
2022-12-26T11:34:46.342Z,8.77
2022-12-26T11:37:28.628Z,8.89
2022-12-26T11:39:57.657Z,8.65
2022-12-26T11:42:27.348Z,9.04
2022-12-26T11:44:56.681Z,9.26
2022-12-26T11:47:28.596Z,9.43
2022-12-26T11:50:08.847Z,9.52
2022-12-26T11:52:45.921Z,9.60
2022-12-26T11:55:23.121Z,9.67
2022-12-26T11:58:08.963Z,9.68
2022-12-26T12:00:40.512Z,9.74
2022-12-26T12:03:19.522Z,9.72
2022-12-26T12:06:03.660Z,9.73
2022-12-26T12:08:46.115Z,9.70
2022-12-26T12:11:30.993Z,9.68
2022-12-26T12:14:24.226Z,9.68
2022-12-26T12:17:07.969Z,9.74
2022-12-26T12:20:00.349Z,9.86
2022-12-26T12:22:45.708Z,9.94
2022-12-26T12:25:30.279Z,10.05
2022-12-26T12:28:29.144Z,10.12
2022-12-26T12:31:49.683Z,10.42
2022-12-26T12:34:19.908Z,11.80
2022-12-26T12:37:05.404Z,13.16
2022-12-26T12:40:07.654Z,13.57
2022-12-26T12:43:08.557Z,13.49
2022-12-26T12:45:43.149Z,13.08
2022-12-26T12:48:20.546Z,13.05
2022-12-26T12:51:35.170Z,15.15
2022-12-26T12:54:09.065Z,15.56
2022-12-26T12:56:54.467Z,15.08
2022-12-26T12:59:43.021Z,14.50
2022-12-26T13:02:42.634Z,14.04
2022-12-26T13:05:35.437Z,13.47
2022-12-26T13:08:12.242Z,12.93
2022-12-26T13:10:53.026Z,12.47
2022-12-26T13:13:33.175Z,12.25
2022-12-26T13:16:16.833Z,11.71
2022-12-26T13:18:59.257Z,11.74
2022-12-26T13:21:29.649Z,11.50
2022-12-26T13:24:25.689Z,11.33
2022-12-26T13:27:08.608Z,11.23
2022-12-26T13:29:45.956Z,10.99
2022-12-26T13:32:25.930Z,10.97
2022-12-26T13:34:57.843Z,10.78
2022-12-26T13:37:40.457Z,10.72
2022-12-26T13:40:20.312Z,10.64
2022-12-26T13:43:40.199Z,10.43
2022-12-26T13:46:42.675Z,10.36
2022-12-26T13:49:41.920Z,10.28
2022-12-26T13:52:12.618Z,10.22
2022-12-26T13:54:49.770Z,10.10
2022-12-26T13:57:45.190Z,9.97
2022-12-26T14:00:52.167Z,9.86
2022-12-26T14:03:28.826Z,9.82
2022-12-26T14:05:59.521Z,9.74
2022-12-26T14:08:51.450Z,9.62
2022-12-26T14:11:28.152Z,9.55
2022-12-26T14:14:34.009Z,9.45
2022-12-26T14:17:24.153Z,9.37
2022-12-26T14:20:04.129Z,9.25
2022-12-26T14:22:31.409Z,9.20
2022-12-26T14:25:26.447Z,9.02
2022-12-26T14:28:09.819Z,9.03
2022-12-26T14:30:40.808Z,8.99
2022-12-26T14:33:30.092Z,8.89
2022-12-26T14:36:42.252Z,8.78
2022-12-26T14:39:27.681Z,8.69
2022-12-26T14:42:34.407Z,8.63
2022-12-26T14:45:05.771Z,8.53
2022-12-26T14:47:38.827Z,8.46
2022-12-26T14:50:43.968Z,8.39
2022-12-26T14:53:30.268Z,8.25
2022-12-26T14:56:17.998Z,8.10
2022-12-26T15:01:49.657Z,7.84
2022-12-26T15:04:27.681Z,7.74
2022-12-26T15:07:11.950Z,7.67
2022-12-26T15:10:30.002Z,7.63
2022-12-26T15:13:34.592Z,7.54
2022-12-26T15:16:23.277Z,7.40
2022-12-26T15:19:24.416Z,7.32
2022-12-26T15:22:19.514Z,7.19
2022-12-26T15:28:15.247Z,7.02
2022-12-26T15:31:23.688Z,6.85
2022-12-26T15:34:28.642Z,6.88
2022-12-26T15:37:07.786Z,6.81
2022-12-26T15:39:51.345Z,6.63
2022-12-26T15:42:24.709Z,6.64
2022-12-26T15:45:03.153Z,6.51
2022-12-26T15:47:37.804Z,6.17
2022-12-26T15:50:33.462Z,6.37
2022-12-26T15:53:42.727Z,6.35
2022-12-26T15:56:30.094Z,6.30
2022-12-26T15:59:09.474Z,6.19
2022-12-26T16:02:06.523Z,6.09
2022-12-26T16:04:42.797Z,6.04
2022-12-26T16:07:34.686Z,6.03
2022-12-26T16:10:02.687Z,5.94
2022-12-26T16:12:31.953Z,5.88
2022-12-26T16:15:18.995Z,5.65
2022-12-26T16:17:48.989Z,5.88
2022-12-26T16:20:41.192Z,5.83
2022-12-26T16:23:15.201Z,5.71
2022-12-26T16:26:03.188Z,5.59
2022-12-26T16:28:44.849Z,5.55
2022-12-26T16:31:21.136Z,5.54
2022-12-26T16:33:49.776Z,5.50
2022-12-26T16:36:25.924Z,5.42
2022-12-26T16:38:54.394Z,5.38
2022-12-26T16:41:25.997Z,5.36
2022-12-26T16:43:54.691Z,5.32
2022-12-26T16:46:26.471Z,5.21
2022-12-26T16:48:57.730Z,5.27
2022-12-26T16:51:36.871Z,5.17
2022-12-26T16:54:22.191Z,5.14
2022-12-26T16:56:57.193Z,5.03
2022-12-26T16:59:29.134Z,4.97
2022-12-26T17:01:59.500Z,4.90
2022-12-26T17:04:29.141Z,4.83
2022-12-26T17:07:16.101Z,4.76
2022-12-26T17:09:50.917Z,4.70
2022-12-26T17:12:23.982Z,4.71
2022-12-26T17:14:56.647Z,4.56
2022-12-26T17:17:23.853Z,4.55
2022-12-26T17:19:54.541Z,4.47
2022-12-26T17:22:31.810Z,4.46
2022-12-26T17:25:34.656Z,4.41
2022-12-26T17:28:18.390Z,4.36
2022-12-26T17:30:48.730Z,4.25
2022-12-26T17:33:20.916Z,4.22
2022-12-26T17:38:45.084Z,4.24
2022-12-26T17:41:16.544Z,4.08
2022-12-26T17:43:46.382Z,4.11
2022-12-26T17:46:17.063Z,3.83
2022-12-26T17:48:44.839Z,3.99
2022-12-26T17:51:17.854Z,3.93
2022-12-26T17:53:50.790Z,3.92
2022-12-26T17:56:28.420Z,3.83
2022-12-26T17:58:56.083Z,3.88
2022-12-26T18:01:23.563Z,3.81
2022-12-26T18:03:54.175Z,3.75
2022-12-26T18:06:23.680Z,3.71
2022-12-26T18:08:50.877Z,3.68
2022-12-26T18:11:18.383Z,3.61
2022-12-26T18:13:45.743Z,3.68
2022-12-26T18:16:19.044Z,3.66
2022-12-26T18:18:48.289Z,3.58
2022-12-26T18:21:20.993Z,3.61
2022-12-26T18:23:48.334Z,3.49
2022-12-26T18:26:26.684Z,3.54
2022-12-26T18:28:54.393Z,3.53
2022-12-26T18:31:25.717Z,3.53
2022-12-26T18:33:53.032Z,3.57
2022-12-26T18:36:23.860Z,3.53
2022-12-26T18:38:51.283Z,3.44
2022-12-26T18:41:27.043Z,3.50
2022-12-26T18:43:54.161Z,3.30
2022-12-26T18:46:36.869Z,3.41
2022-12-26T18:49:05.297Z,3.35
2022-12-26T18:51:32.507Z,3.29
2022-12-26T18:54:01.553Z,3.04
2022-12-26T18:56:30.834Z,3.24
2022-12-26T18:58:58.988Z,3.23
2022-12-26T19:01:30.952Z,3.32
2022-12-26T19:03:59.586Z,3.37
2022-12-26T19:06:33.335Z,3.07
2022-12-26T19:09:06.401Z,3.20
2022-12-26T19:11:39.189Z,3.17
2022-12-26T19:14:08.994Z,3.17
2022-12-26T19:16:40.455Z,3.14
2022-12-26T19:19:08.866Z,2.94
2022-12-26T19:21:36.111Z,3.00
2022-12-26T19:24:04.403Z,3.09
2022-12-26T19:26:31.718Z,3.08
2022-12-26T19:29:03.212Z,3.03
2022-12-26T19:31:32.584Z,3.03
2022-12-26T19:34:05.511Z,3.02
2022-12-26T19:36:34.156Z,2.91
2022-12-26T19:39:01.909Z,2.86
2022-12-26T19:41:30.131Z,2.83
2022-12-26T19:44:01.343Z,2.81
2022-12-26T19:46:29.151Z,2.71
2022-12-26T19:48:56.604Z,2.57
2022-12-26T19:51:34.788Z,2.54
2022-12-26T19:54:03.416Z,2.57
2022-12-26T19:56:30.886Z,2.54
2022-12-26T19:58:59.497Z,2.42
2022-12-26T20:01:29.255Z,2.47
2022-12-26T20:04:03.104Z,2.43
2022-12-26T20:06:32.618Z,2.47
2022-12-26T20:09:01.675Z,2.49
2022-12-26T20:11:35.734Z,2.43
2022-12-26T20:14:06.542Z,2.39
2022-12-26T20:19:23.989Z,2.29
2022-12-26T20:21:51.449Z,2.31
2022-12-26T20:24:21.423Z,2.34
2022-12-26T20:26:50.277Z,2.35
2022-12-26T20:29:18.686Z,2.40
2022-12-26T20:31:48.000Z,2.31
2022-12-26T20:34:15.819Z,2.27
2022-12-26T20:36:43.267Z,2.29
2022-12-26T20:39:17.294Z,2.25
2022-12-26T20:41:49.113Z,2.19
2022-12-26T20:44:17.237Z,2.18
2022-12-26T20:46:46.264Z,2.17
2022-12-26T20:49:14.353Z,2.16
2022-12-26T20:51:44.173Z,1.96
2022-12-26T20:54:13.967Z,2.15
2022-12-26T20:56:42.605Z,2.09
2022-12-26T20:59:10.343Z,2.10
2022-12-26T21:01:41.493Z,2.09
2022-12-26T21:04:26.218Z,2.00
2022-12-26T21:06:53.279Z,2.05
2022-12-26T21:09:20.499Z,2.04
2022-12-26T21:11:47.452Z,2.00
2022-12-26T21:14:17.616Z,1.96
2022-12-26T21:16:48.232Z,1.81
2022-12-26T21:19:17.010Z,1.92
2022-12-26T21:21:47.366Z,1.80
2022-12-26T21:24:23.233Z,1.55
2022-12-26T21:26:53.899Z,1.95
2022-12-26T21:29:33.558Z,1.94
2022-12-26T21:32:01.838Z,1.96
2022-12-26T21:34:31.799Z,1.94
2022-12-26T21:37:18.614Z,1.93
2022-12-26T21:39:47.337Z,1.93
2022-12-26T21:42:14.822Z,1.90
2022-12-26T21:44:42.458Z,1.86
2022-12-26T21:47:09.965Z,1.69
2022-12-26T21:49:37.738Z,1.76
2022-12-26T21:52:09.599Z,1.75
2022-12-26T21:54:57.416Z,1.71
2022-12-26T21:57:25.940Z,1.76
2022-12-26T22:00:13.749Z,1.75
2022-12-26T22:02:59.457Z,1.54
2022-12-26T22:05:29.225Z,1.67
2022-12-26T22:07:59.604Z,1.71
2022-12-26T22:10:49.260Z,1.65
2022-12-26T22:13:18.260Z,1.69
2022-12-26T22:16:03.831Z,1.71
2022-12-26T22:18:32.931Z,1.73
2022-12-26T22:21:14.003Z,1.57
2022-12-26T22:23:42.940Z,1.58
2022-12-26T22:26:12.173Z,1.44
2022-12-26T22:28:45.029Z,1.69
2022-12-26T22:31:32.560Z,1.69
2022-12-26T22:34:10.645Z,1.61
2022-12-26T22:36:42.150Z,1.62
2022-12-26T22:39:13.725Z,1.53
2022-12-26T22:41:45.990Z,1.51
2022-12-26T22:44:17.105Z,1.41
2022-12-26T22:46:44.482Z,1.50
2022-12-26T22:49:11.625Z,1.48
2022-12-26T22:51:39.474Z,1.42
2022-12-26T22:54:12.822Z,1.43
2022-12-26T22:56:39.957Z,1.41
2022-12-26T22:59:07.688Z,1.36
2022-12-26T23:01:35.419Z,1.38
2022-12-26T23:04:02.914Z,1.39
2022-12-26T23:06:32.872Z,1.07
2022-12-26T23:09:02.369Z,1.35
2022-12-26T23:11:35.098Z,1.22
2022-12-26T23:14:05.459Z,1.25
2022-12-26T23:16:53.506Z,1.24
2022-12-26T23:20:01.196Z,1.26
2022-12-26T23:22:29.055Z,1.17
2022-12-26T23:24:56.222Z,1.17
2022-12-26T23:27:43.116Z,1.20
2022-12-26T23:30:18.537Z,1.23
2022-12-26T23:32:49.412Z,0.62
2022-12-26T23:35:26.808Z,1.21
2022-12-26T23:37:54.479Z,1.20
2022-12-26T23:40:22.584Z,1.15
2022-12-26T23:42:49.998Z,1.18
2022-12-26T23:45:17.285Z,1.14
2022-12-26T23:47:46.056Z,1.15
2022-12-26T23:50:15.124Z,0.98
2022-12-26T23:52:42.698Z,1.11
2022-12-26T23:55:10.936Z,1.08
2022-12-26T23:57:38.523Z,1.25
